Time;durP1;ratioP1;P1;durP2;ratioP2;P2;SDS_P1;SDS_P2;PMS_P1;PMS_P2;Temp;Humidity;BMP_temperature;BMP_pressure;BME280_temperature;BME280_humidity;BME280_pressure;Samples;Min_cycle;Max_cycle;Signal;HPM_P1;HPM_P2
2023/09/15 05:17:36;;;;;;;;;;;;;;;;;;3370412;26;19971;-51
2023/09/15 05:20:03;;;;;;;;;;;;;;;;;;5049648;28;20325;-50
2023/09/15 05:22:29;;;;;;;;;;;;;;;;;;5050028;28;19905;-48
2023/09/15 05:24:55;;;;;;;;;;;;;;;;;;5049737;28;19908;-48
2023/09/15 05:27:21;;;;;;;;;;;;;;;;;;5049827;28;19931;-48
2023/09/15 05:29:47;;;;;;;;;;;;;;;;;;5049991;28;19909;-48
2023/09/15 05:32:13;;;;;;;;;;;;;;;;;;5049481;28;19916;-49
2023/09/15 05:34:39;;;;;;;;;;;;;;;;;;5048944;28;20371;-49
2023/09/15 05:37:05;;;;;;;;;;;;;;;;;;5049723;28;19940;-49
2023/09/15 05:39:31;;;;;;;;;;;;;;;;;;5049881;28;19912;-49
2023/09/15 05:41:57;;;;;;;;;;;;;;;;;;5049591;28;19970;-51
2023/09/15 05:44:22;;;;;;;;;;;;;;;;;;5048411;28;20399;-48
2023/09/15 05:46:48;;;;;;;;;;;;;;;;;;5049054;28;19913;-50
2023/09/15 05:49:14;;;;;;;;;;;;;;;;;;5063965;28;19909;-49
2023/09/15 05:51:40;;;;;;;;;;;;;;;;;;5070501;28;19956;-51
2023/09/15 05:54:07;;;;;;;;;;;;;;;;;;5050541;28;19909;-48
2023/09/15 05:56:33;;;;;;;;;;;;;;;;;;5050308;28;20427;-50
2023/09/15 05:58:59;;;;;;;;;;;;;;;;;;5050173;28;19999;-49
2023/09/15 06:01:24;;;;;;;;;;;;;;;;;;5050064;28;19920;-50
2023/09/15 06:03:50;;;;;;;;;;;;;;;;;;5050636;28;19917;-49
2023/09/15 06:06:16;;;;;;;;;;;;;;;;;;5050449;28;20577;-51
2023/09/15 06:08:42;;;;;;;;;;;;;;;;;;5050553;28;19935;-48
2023/09/15 06:11:08;;;;;;;;;;;;;;;;;;5049008;28;19919;-49
2023/09/15 06:13:34;;;;;;;;;;;;;;;;;;5050429;28;19917;-48
2023/09/15 06:16:00;;;;;;;;;;;;;;;;;;5050258;28;19924;-48
2023/09/15 06:18:26;;;;;;;;;;;;;;;;;;5050664;28;19909;-49
2023/09/15 06:20:56;;;;;;;;;;;;;;;;;;5049685;28;19917;-47
2023/09/15 06:23:22;;;;;;;;;;;;;;;;;;5047671;28;20413;-48
2023/09/15 06:25:48;;;;;;;;;;;;;;;;;;5049146;28;19952;-48
2023/09/15 06:28:14;;;;;;;;;;;;;;;;;;5048693;28;19966;-49
2023/09/15 06:30:40;;;;;;;;;;;;;;;;;;5049315;28;19913;-49
2023/09/15 06:33:06;;;;;;;;;;;;;;;;;;5046629;28;19960;-48
2023/09/15 06:35:32;;;;;;;;;;;;;;;;;;5045285;28;20379;-52
2023/09/15 06:37:58;;;;;;;;;;;;;;;;;;5048722;28;19966;-51
2023/09/15 06:40:24;;;;;;;;;;;;;;;;;;5031299;28;19921;-48
2023/09/15 06:42:50;;;;;;;;;;;;;;;;;;5050660;28;19917;-48
2023/09/15 06:45:16;;;;;;;;;;;;;;;;;;5051039;28;19916;-49
2023/09/15 06:47:42;;;;;;;;;;;;;;;;;;5055156;28;19958;-49
2023/09/15 06:50:08;;;;;;;;;;;;;;;;;;5036270;28;19913;-51
2023/09/15 06:52:34;;;;;;;;;;;;;;;;;;5034891;28;19967;-48
2023/09/15 06:55:00;;;;;;;;;;;;;;;;;;5034786;28;19913;-49
2023/09/15 06:57:26;;;;;;;;;;;;;;;;;;5038015;28;19913;-50
2023/09/15 06:59:52;;;;;;;;;;;;;;;;;;5053410;28;19944;-49
2023/09/15 07:02:18;;;;;;;;;;;;;;;;;;5054536;28;19908;-50
2023/09/15 07:04:44;;;;;;;;;;;;;;;;;;5053610;28;19916;-51
2023/09/15 07:07:10;;;;;;;;;;;;;;;;;;5054544;28;20007;-49
2023/09/15 07:09:36;;;;;;;;;;;;;;;;;;5052444;28;19956;-49
2023/09/15 07:12:01;;;;;;;;;;;;;;;;;;5054673;28;19917;-51
2023/09/15 07:14:27;;;;;;;;;;;;;;;;;;5054697;28;19909;-51
2023/09/15 07:16:53;;;;;;;;;;;;;;;;;;5050192;28;19948;-52
2023/09/15 07:19:19;;;;;;;;;;;;;;;;;;5053469;28;19924;-50
2023/09/15 07:21:46;;;;;;;;;;;;;;;;;;5036364;28;19913;-50
2023/09/15 07:24:12;;;;;;;;;;;;;;;;;;5053475;28;19955;-49
2023/09/15 07:26:38;;;;;;;;;;;;;;;;;;5053811;28;20005;-48
2023/09/15 07:29:03;;;;;;;;;;;;;;;;;;5050429;28;20294;-52
2023/09/15 07:31:29;;;;;;;;;;;;;;;;;;5038887;28;20019;-52
2023/09/15 07:33:55;;;;;;;;;;;;;;;;;;5058282;28;19912;-51
2023/09/15 07:36:21;;;;;;;;;;;;;;;;;;5053994;28;19909;-51
2023/09/15 07:38:47;;;;;;;;;;;;;;;;;;5054678;28;19997;-52
2023/09/15 07:41:13;;;;;;;;;;;;;;;;;;5055688;28;19947;-51
2023/09/15 07:43:39;;;;;;;;;;;;;;;;;;5052829;28;20410;-50
2023/09/15 07:46:05;;;;;;;;;;;;;;;;;;5051391;28;19916;-49
2023/09/15 07:48:31;;;;;;;;;;;;;;;;;;5053708;28;19912;-49
2023/09/15 07:50:57;;;;;;;;;;;;;;;;;;5032897;28;19936;-52
2023/09/15 07:53:23;;;;;;;;;;;;;;;;;;5052890;28;20466;-50
2023/09/15 07:55:49;;;;;;;;;;;;;;;;;;5052586;28;19971;-51
2023/09/15 07:58:15;;;;;;;;;;;;;;;;;;5052494;28;19958;-50
2023/09/15 08:00:41;;;;;;;;;;;;;;;;;;5052838;28;19913;-50
2023/09/15 08:03:08;;;;;;;;;;;;;;;;;;5052839;28;19905;-50
2023/09/15 08:05:34;;;;;;;;;;;;;;;;;;5052875;28;19991;-48
2023/09/15 08:07:59;;;;;;;;;;;;;;;;;;5052764;28;19996;-50
2023/09/15 08:10:26;;;;;;;;;;;;;;;;;;5052765;28;19935;-48
2023/09/15 08:12:52;;;;;;;;;;;;;;;;;;5052733;28;19917;-50
2023/09/15 08:15:18;;;;;;;;;;;;;;;;;;5052303;28;19995;-50
2023/09/15 08:17:44;;;;;;;;;;;;;;;;;;5052635;28;20454;-48
2023/09/15 08:20:11;;;;;;;;;;;;;;;;;;5052243;28;19927;-49
2023/09/15 08:22:38;;;;;;;;;;;;;;;;;;5052257;28;19916;-48
2023/09/15 08:25:04;;;;;;;;;;;;;;;;;;5052013;28;19909;-49
2023/09/15 08:27:30;;;;;;;;;;;;;;;;;;5052680;28;20295;-48
2023/09/15 08:29:56;;;;;;;;;;;;;;;;;;5052363;28;19975;-50
2023/09/15 08:32:22;;;;;;;;;;;;;;;;;;5052043;28;19919;-49
2023/09/15 08:34:47;;;;;;;;;;;;;;;;;;5052054;28;20315;-48
2023/09/15 08:37:13;;;;;;;;;;;;;;;;;;5052182;28;19939;-48
2023/09/15 08:39:39;;;;;;;;;;;;;;;;;;5052135;28;20378;-49
2023/09/15 08:42:05;;;;;;;;;;;;;;;;;;5051430;28;19916;-48
2023/09/15 08:44:31;;;;;;;;;;;;;;;;;;5051042;28;19915;-50
2023/09/15 08:46:57;;;;;;;;;;;;;;;;;;5050745;28;19913;-47
2023/09/15 08:49:23;;;;;;;;;;;;;;;;;;5050668;28;19909;-48
2023/09/15 08:51:49;;;;;;;;;;;;;;;;;;5050714;28;19959;-48
2023/09/15 08:54:14;;;;;;;;;;;;;;;;;;5050592;28;20424;-49
2023/09/15 08:56:40;;;;;;;;;;;;;;;;;;5050819;28;19919;-48
2023/09/15 08:59:06;;;;;;;;;;;;;;;;;;5050562;28;19915;-48
2023/09/15 09:01:32;;;;;;;;;;;;;;;;;;5051034;28;20275;-51
2023/09/15 09:03:58;;;;;;;;;;;;;;;;;;5050532;28;19913;-51
2023/09/15 09:06:24;;;;;;;;;;;;;;;;;;5050907;28;19913;-51
2023/09/15 09:08:50;;;;;;;;;;;;;;;;;;5050201;28;19913;-48
2023/09/15 09:11:16;;;;;;;;;;;;;;;;;;5050404;28;19909;-48
2023/09/15 09:13:42;;;;;;;;;;;;;;;;;;5050425;28;19919;-49
2023/09/15 09:16:08;;;;;;;;;;;;;;;;;;5032281;28;19916;-49
2023/09/15 09:18:34;;;;;;;;;;;;;;;;;;5050399;28;19954;-50
2023/09/15 09:20:59;;;;;;;;;;;;;;;;;;5050195;28;19982;-50
2023/09/15 09:23:25;;;;;;;;;;;;;;;;;;5050048;28;20395;-48
2023/09/15 09:25:51;;;;;;;;;;;;;;;;;;5050190;28;19909;-48
2023/09/15 09:28:17;;;;;;;;;;;;;;;;;;5050032;28;19909;-49
2023/09/15 09:30:43;;;;;;;;;;;;;;;;;;5049872;28;20101;-49
2023/09/15 09:33:11;;;;;;;;;;;;;;;;;;5049977;28;19917;-48
2023/09/15 09:35:37;;;;;;;;;;;;;;;;;;5049833;28;19931;-48
2023/09/15 09:38:04;;;;;;;;;;;;;;;;;;5050010;28;19909;-48
2023/09/15 09:40:30;;;;;;;;;;;;;;;;;;5049771;28;20388;-49
2023/09/15 09:42:56;;;;;;;;;;;;;;;;;;5049982;28;19955;-51
2023/09/15 09:45:21;;;;;;;;;;;;;;;;;;5049547;28;19970;-51
2023/09/15 09:47:47;;;;;;;;;;;;;;;;;;5049640;28;19915;-49
2023/09/15 09:50:13;;;;;;;;;;;;;;;;;;5049698;28;20446;-51
2023/09/15 09:52:39;;;;;;;;;;;;;;;;;;5049412;28;19913;-48
2023/09/15 09:55:05;;;;;;;;;;;;;;;;;;5049773;28;19912;-49
2023/09/15 09:57:31;;;;;;;;;;;;;;;;;;5049460;28;20387;-47
2023/09/15 09:59:57;;;;;;;;;;;;;;;;;;5049534;28;19913;-52
2023/09/15 10:02:23;;;;;;;;;;;;;;;;;;5049534;28;19931;-50
2023/09/15 10:04:49;;;;;;;;;;;;;;;;;;5049850;28;19966;-51
2023/09/15 10:07:14;;;;;;;;;;;;;;;;;;5049358;28;20350;-51
2023/09/15 10:09:40;;;;;;;;;;;;;;;;;;5049347;28;19917;-51
2023/09/15 10:12:06;;;;;;;;;;;;;;;;;;5046762;28;21949;-51
2023/09/15 10:14:32;;;;;;;;;;;;;;;;;;5043553;28;19917;-51
2023/09/15 10:16:58;;;;;;;;;;;;;;;;;;5049347;28;19935;-51
2023/09/15 10:19:24;;;;;;;;;;;;;;;;;;5068911;28;19922;-51
2023/09/15 10:21:50;;;;;;;;;;;;;;;;;;5066019;28;20387;-52
2023/09/15 10:24:16;;;;;;;;;;;;;;;;;;5050515;28;19919;-51
2023/09/15 10:26:42;;;;;;;;;;;;;;;;;;5049956;28;19913;-52
2023/09/15 10:29:08;;;;;;;;;;;;;;;;;;5050713;28;20390;-52
2023/09/15 10:31:35;;;;;;;;;;;;;;;;;;5051221;28;19916;-52
2023/09/15 10:34:01;;;;;;;;;;;;;;;;;;5056060;28;20283;-52
2023/09/15 10:36:26;;;;;;;;;;;;;;;;;;5057882;28;19990;-49
2023/09/15 10:38:54;;;;;;;;;;;;;;;;;;5050768;28;20336;-50
2023/09/15 10:41:19;;;;;;;;;;;;;;;;;;5049934;28;19923;-52
2023/09/15 10:43:45;;;;;;;;;;;;;;;;;;5048626;28;19913;-50
2023/09/15 10:46:11;;;;;;;;;;;;;;;;;;5048523;28;19909;-49
2023/09/15 10:48:37;;;;;;;;;;;;;;;;;;5049584;28;19948;-50
2023/09/15 10:51:03;;;;;;;;;;;;;;;;;;5049016;28;19908;-50
2023/09/15 10:53:30;;;;;;;;;;;;;;;;;;5048896;28;19924;-50
2023/09/15 10:55:56;;;;;;;;;;;;;;;;;;5048742;28;20003;-52
2023/09/15 10:58:22;;;;;;;;;;;;;;;;;;5048873;28;19952;-52
2023/09/15 11:00:48;;;;;;;;;;;;;;;;;;5048842;28;20017;-51
2023/09/15 11:03:14;;;;;;;;;;;;;;;;;;5049045;28;19915;-53
2023/09/15 11:05:40;;;;;;;;;;;;;;;;;;5048591;28;20352;-52
2023/09/15 11:08:06;;;;;;;;;;;;;;;;;;5049191;28;19916;-49
2023/09/15 11:10:32;;;;;;;;;;;;;;;;;;5048681;28;19915;-51
2023/09/15 11:12:58;;;;;;;;;;;;;;;;;;5048620;28;20386;-53
2023/09/15 11:15:24;;;;;;;;;;;;;;;;;;5048088;28;20473;-51
2023/09/15 11:17:50;;;;;;;;;;;;;;;;;;5045826;28;19921;-53
2023/09/15 11:20:16;;;;;;;;;;;;;;;;;;5046084;28;20383;-53
2023/09/15 11:22:42;;;;;;;;;;;;;;;;;;5046290;28;19916;-53
2023/09/15 11:25:08;;;;;;;;;;;;;;;;;;5046156;28;19909;-52
2023/09/15 11:27:34;;;;;;;;;;;;;;;;;;5046875;28;19955;-53
2023/09/15 11:30:00;;;;;;;;;;;;;;;;;;5046163;28;19912;-53
2023/09/15 11:32:26;;;;;;;;;;;;;;;;;;5048388;28;20516;-53
2023/09/15 11:34:52;;;;;;;;;;;;;;;;;;5049959;28;20272;-53
2023/09/15 11:37:18;;;;;;;;;;;;;;;;;;5049578;28;20286;-52
2023/09/15 11:39:44;;;;;;;;;;;;;;;;;;5050012;28;19909;-52
2023/09/15 11:42:10;;;;;;;;;;;;;;;;;;5049772;28;19920;-54
2023/09/15 11:44:36;;;;;;;;;;;;;;;;;;5050231;28;19908;-49
2023/09/15 11:47:02;;;;;;;;;;;;;;;;;;5049313;28;19909;-52
2023/09/15 11:49:28;;;;;;;;;;;;;;;;;;5049534;28;19920;-51
2023/09/15 11:51:57;;;;;;;;;;;;;;;;;;5049506;28;19916;-51
2023/09/15 11:54:23;;;;;;;;;;;;;;;;;;5049610;28;19983;-52
2023/09/15 11:56:49;;;;;;;;;;;;;;;;;;5049278;28;20000;-50
2023/09/15 11:59:15;;;;;;;;;;;;;;;;;;5049401;28;20367;-53
2023/09/15 12:01:41;;;;;;;;;;;;;;;;;;5049381;28;20402;-53
2023/09/15 12:04:07;;;;;;;;;;;;;;;;;;5049739;28;20329;-52
2023/09/15 12:06:33;;;;;;;;;;;;;;;;;;5049391;28;19909;-53
2023/09/15 12:08:59;;;;;;;;;;;;;;;;;;5049106;28;19913;-53
2023/09/15 12:11:25;;;;;;;;;;;;;;;;;;5049057;28;19909;-52
2023/09/15 12:13:54;;;;;;;;;;;;;;;;;;5048931;28;20411;-53
2023/09/15 12:16:20;;;;;;;;;;;;;;;;;;5048845;28;19966;-49
2023/09/15 12:18:46;;;;;;;;;;;;;;;;;;5048895;28;19905;-48
2023/09/15 12:21:12;;;;;;;;;;;;;;;;;;5048993;28;19917;-53
2023/09/15 12:23:38;;;;;;;;;;;;;;;;;;5049587;28;19966;-48
2023/09/15 12:26:04;;;;;;;;;;;;;;;;;;5049465;28;19909;-52
2023/09/15 12:28:31;;;;;;;;;;;;;;;;;;5048642;28;19915;-51
2023/09/15 12:30:57;;;;;;;;;;;;;;;;;;5049057;28;19916;-48
2023/09/15 12:33:24;;;;;;;;;;;;;;;;;;5048573;28;20342;-51
2023/09/15 12:35:50;;;;;;;;;;;;;;;;;;5030866;28;20406;-52
2023/09/15 12:38:17;;;;;;;;;;;;;;;;;;5048712;28;19908;-50
2023/09/15 12:40:43;;;;;;;;;;;;;;;;;;5048450;28;19908;-51
2023/09/15 12:43:09;;;;;;;;;;;;;;;;;;5048692;28;19916;-52
2023/09/15 12:45:35;;;;;;;;;;;;;;;;;;5049431;28;20334;-53
2023/09/15 12:48:01;;;;;;;;;;;;;;;;;;5048122;28;19909;-53
2023/09/15 12:50:27;;;;;;;;;;;;;;;;;;5048414;28;19909;-52
2023/09/15 12:52:54;;;;;;;;;;;;;;;;;;5048331;28;19917;-52
2023/09/15 12:55:20;;;;;;;;;;;;;;;;;;5048318;28;19944;-53
2023/09/15 12:57:46;;;;;;;;;;;;;;;;;;5047953;28;19963;-52
2023/09/15 13:00:12;;;;;;;;;;;;;;;;;;5048455;28;19994;-51
2023/09/15 13:02:38;;;;;;;;;;;;;;;;;;5048722;28;19908;-49
2023/09/15 13:05:04;;;;;;;;;;;;;;;;;;5048440;28;20330;-51
2023/09/15 13:07:30;;;;;;;;;;;;;;;;;;5047755;28;19982;-52
2023/09/15 13:09:56;;;;;;;;;;;;;;;;;;5048066;28;19912;-53
2023/09/15 13:12:22;;;;;;;;;;;;;;;;;;5047764;28;19913;-50
2023/09/15 13:14:48;;;;;;;;;;;;;;;;;;5048575;28;19948;-50
2023/09/15 13:17:14;;;;;;;;;;;;;;;;;;5030763;28;19963;-49
2023/09/15 13:19:40;;;;;;;;;;;;;;;;;;5048132;28;19928;-50
2023/09/15 13:22:06;;;;;;;;;;;;;;;;;;5048269;28;20379;-52
2023/09/15 13:24:32;;;;;;;;;;;;;;;;;;5047775;28;20160;-49
2023/09/15 13:26:59;;;;;;;;;;;;;;;;;;5047647;28;19909;-54
2023/09/15 13:29:27;;;;;;;;;;;;;;;;;;5047668;28;20330;-51
2023/09/15 13:31:52;;;;;;;;;;;;;;;;;;5047518;28;19913;-53
2023/09/15 13:34:18;;;;;;;;;;;;;;;;;;5048627;28;19913;-50
2023/09/15 13:36:44;;;;;;;;;;;;;;;;;;5030333;28;20466;-51
2023/09/15 13:39:11;;;;;;;;;;;;;;;;;;5047226;28;19960;-50
2023/09/15 13:41:38;;;;;;;;;;;;;;;;;;5047267;28;19909;-52
2023/09/15 13:44:04;;;;;;;;;;;;;;;;;;5047150;28;19916;-49
2023/09/15 13:46:31;;;;;;;;;;;;;;;;;;5047516;28;19912;-51
2023/09/15 13:48:56;;;;;;;;;;;;;;;;;;5047058;28;19916;-50
2023/09/15 13:51:23;;;;;;;;;;;;;;;;;;5047407;28;19999;-52
2023/09/15 13:53:49;;;;;;;;;;;;;;;;;;5047047;28;19914;-52
2023/09/15 13:56:15;;;;;;;;;;;;;;;;;;5047862;28;19962;-50
2023/09/15 13:58:41;;;;;;;;;;;;;;;;;;5046918;28;19905;-53
2023/09/15 14:01:06;;;;;;;;;;;;;;;;;;5047175;28;19934;-48
2023/09/15 14:03:32;;;;;;;;;;;;;;;;;;5046982;28;19951;-54
2023/09/15 14:05:58;;;;;;;;;;;;;;;;;;5047056;28;19909;-50
2023/09/15 14:08:24;;;;;;;;;;;;;;;;;;5046754;28;19943;-50
2023/09/15 14:10:50;;;;;;;;;;;;;;;;;;5047211;28;19920;-53
2023/09/15 14:13:16;;;;;;;;;;;;;;;;;;5047277;28;19917;-50
2023/09/15 14:15:44;;;;;;;;;;;;;;;;;;5046146;28;20301;-53
2023/09/15 14:18:10;;;;;;;;;;;;;;;;;;5046681;28;19967;-50
2023/09/15 14:20:36;;;;;;;;;;;;;;;;;;5046685;28;20434;-50
2023/09/15 14:23:02;;;;;;;;;;;;;;;;;;5046837;28;19909;-52
2023/09/15 14:25:27;;;;;;;;;;;;;;;;;;5046935;28;20330;-42
2023/09/15 14:27:53;;;;;;;;;;;;;;;;;;5046421;28;19915;-42
2023/09/15 14:30:19;;;;;;;;;;;;;;;;;;5047508;28;19912;-43
2023/09/15 14:32:45;;;;;;;;;;;;;;;;;;5046605;28;19952;-41
2023/09/15 14:35:12;;;;;;;;;;;;;;;;;;5046719;28;19935;-41
2023/09/15 14:37:38;;;;;;;;;;;;;;;;;;5046677;28;19916;-42
2023/09/15 14:40:04;;;;;;;;;;;;;;;;;;5046687;28;19909;-41
2023/09/15 14:42:30;;;;;;;;;;;;;;;;;;5046506;28;20409;-42
2023/09/15 14:44:56;;;;;;;;;;;;;;;;;;5047578;28;20023;-41
2023/09/15 14:47:22;;;;;;;;;;;;;;;;;;5048058;28;19928;-42
2023/09/15 14:49:48;;;;;;;;;;;;;;;;;;5048331;28;19920;-42
2023/09/15 14:52:14;;;;;;;;;;;;;;;;;;5047835;28;19913;-41
2023/09/15 14:54:39;;;;;;;;;;;;;;;;;;5047187;28;20209;-43
2023/09/15 14:57:06;;;;;;;;;;;;;;;;;;5026869;28;19912;-43
2023/09/15 14:59:32;;;;;;;;;;;;;;;;;;5037701;28;19919;-43
2023/09/15 15:01:58;;;;;;;;;;;;;;;;;;5043363;28;19909;-43
2023/09/15 15:04:24;;;;;;;;;;;;;;;;;;5032246;28;20367;-43
2023/09/15 15:06:50;;;;;;;;;;;;;;;;;;5029166;28;20410;-43
2023/09/15 15:09:16;;;;;;;;;;;;;;;;;;5037110;28;19913;-42
2023/09/15 15:11:42;;;;;;;;;;;;;;;;;;5041277;28;19913;-42
2023/09/15 15:14:08;;;;;;;;;;;;;;;;;;5051641;28;19913;-43
2023/09/15 15:16:34;;;;;;;;;;;;;;;;;;5051518;28;19913;-42
2023/09/15 15:19:00;;;;;;;;;;;;;;;;;;5052106;28;19916;-42
2023/09/15 15:21:26;;;;;;;;;;;;;;;;;;5051277;28;20575;-43
2023/09/15 15:23:52;;;;;;;;;;;;;;;;;;5051719;28;20382;-42
2023/09/15 15:26:18;;;;;;;;;;;;;;;;;;5050656;28;20007;-42
2023/09/15 15:28:44;;;;;;;;;;;;;;;;;;5051351;28;19912;-41
2023/09/15 15:31:10;;;;;;;;;;;;;;;;;;5050879;28;19916;-42
2023/09/15 15:33:37;;;;;;;;;;;;;;;;;;5050201;28;19923;-42
2023/09/15 15:36:03;;;;;;;;;;;;;;;;;;5051275;28;19923;-42
2023/09/15 15:38:28;;;;;;;;;;;;;;;;;;5051166;28;19917;-42
2023/09/15 15:40:54;;;;;;;;;;;;;;;;;;5050912;28;19919;-43
2023/09/15 15:43:20;;;;;;;;;;;;;;;;;;5050792;28;19947;-42
2023/09/15 15:45:46;;;;;;;;;;;;;;;;;;5050483;28;19963;-41
2023/09/15 15:48:12;;;;;;;;;;;;;;;;;;5050764;28;19954;-42
2023/09/15 15:50:38;;;;;;;;;;;;;;;;;;5050227;28;19913;-42
2023/09/15 15:53:04;;;;;;;;;;;;;;;;;;5050982;28;20440;-42
2023/09/15 15:55:31;;;;;;;;;;;;;;;;;;5051367;28;19972;-42
2023/09/15 15:57:57;;;;;;;;;;;;;;;;;;5050943;28;19995;-42
2023/09/15 16:00:23;;;;;;;;;;;;;;;;;;5050640;28;20055;-41
2023/09/15 16:02:49;;;;;;;;;;;;;;;;;;5050403;28;19966;-41
2023/09/15 16:05:15;;;;;;;;;;;;;;;;;;5050562;28;19909;-43
2023/09/15 16:07:41;;;;;;;;;;;;;;;;;;5050601;28;19999;-43
2023/09/15 16:10:07;;;;;;;;;;;;;;;;;;5050467;28;19930;-45
2023/09/15 16:12:33;;;;;;;;;;;;;;;;;;5051366;28;19920;-43
2023/09/15 16:14:59;;;;;;;;;;;;;;;;;;5050598;28;20636;-43
2023/09/15 16:17:26;;;;;;;;;;;;;;;;;;5049338;28;20016;-42
2023/09/15 16:19:52;;;;;;;;;;;;;;;;;;5050247;28;19924;-42
2023/09/15 16:22:18;;;;;;;;;;;;;;;;;;5050441;28;19956;-42
2023/09/15 16:24:44;;;;;;;;;;;;;;;;;;5050248;28;19935;-43
2023/09/15 16:27:10;;;;;;;;;;;;;;;;;;5050346;28;19915;-45
2023/09/15 16:29:36;;;;;;;;;;;;;;;;;;5049428;28;19916;-42
2023/09/15 16:32:02;;;;;;;;;;;;;;;;;;5046664;28;19963;-42
2023/09/15 16:34:28;;;;;;;;;;;;;;;;;;5037661;28;19975;-42
2023/09/15 16:36:54;;;;;;;;;;;;;;;;;;5038280;28;19960;-42
2023/09/15 16:39:19;;;;;;;;;;;;;;;;;;5045344;28;20591;-42
2023/09/15 16:41:45;;;;;;;;;;;;;;;;;;5038505;28;19917;-41
2023/09/15 16:44:11;;;;;;;;;;;;;;;;;;5033532;28;19909;-42
2023/09/15 16:46:37;;;;;;;;;;;;;;;;;;5042911;28;20390;-42
2023/09/15 16:49:03;;;;;;;;;;;;;;;;;;5049665;28;19966;-43
2023/09/15 16:51:29;;;;;;;;;;;;;;;;;;5050122;28;20275;-41
2023/09/15 16:53:55;;;;;;;;;;;;;;;;;;5049324;28;19917;-43
2023/09/15 16:56:21;;;;;;;;;;;;;;;;;;5049763;28;19909;-43
2023/09/15 16:58:47;;;;;;;;;;;;;;;;;;5049735;28;19908;-43
2023/09/15 17:01:13;;;;;;;;;;;;;;;;;;5049215;28;19916;-43
2023/09/15 17:03:39;;;;;;;;;;;;;;;;;;5049884;28;19908;-42
2023/09/15 17:06:05;;;;;;;;;;;;;;;;;;5050100;28;19905;-41
2023/09/15 17:08:30;;;;;;;;;;;;;;;;;;5049540;28;19971;-42
2023/09/15 17:10:56;;;;;;;;;;;;;;;;;;5049295;28;20674;-42
2023/09/15 17:13:22;;;;;;;;;;;;;;;;;;5048811;28;19944;-41
2023/09/15 17:15:49;;;;;;;;;;;;;;;;;;5048901;28;19913;-41
2023/09/15 17:18:15;;;;;;;;;;;;;;;;;;5048788;28;19919;-42
2023/09/15 17:20:41;;;;;;;;;;;;;;;;;;5048954;28;19921;-42
2023/09/15 17:23:07;;;;;;;;;;;;;;;;;;5025899;28;19921;-41
2023/09/15 17:25:33;;;;;;;;;;;;;;;;;;5047120;28;19913;-42
2023/09/15 17:28:00;;;;;;;;;;;;;;;;;;5048531;28;19909;-42
2023/09/15 17:30:26;;;;;;;;;;;;;;;;;;5043372;28;19928;-42
2023/09/15 17:32:52;;;;;;;;;;;;;;;;;;5036458;28;19917;-42
2023/09/15 17:35:18;;;;;;;;;;;;;;;;;;5047877;28;19920;-41
2023/09/15 17:37:44;;;;;;;;;;;;;;;;;;5048179;28;20387;-41
2023/09/15 17:40:10;;;;;;;;;;;;;;;;;;5048872;28;19917;-40
2023/09/15 17:42:36;;;;;;;;;;;;;;;;;;5049635;28;19932;-40
2023/09/15 17:45:02;;;;;;;;;;;;;;;;;;5047527;28;19913;-40
2023/09/15 17:47:28;;;;;;;;;;;;;;;;;;5047680;28;19955;-40
2023/09/15 17:49:54;;;;;;;;;;;;;;;;;;5048058;28;19936;-40
2023/09/15 17:52:20;;;;;;;;;;;;;;;;;;5048708;28;20279;-41
2023/09/15 17:54:48;;;;;;;;;;;;;;;;;;5047528;28;19913;-40
2023/09/15 17:57:14;;;;;;;;;;;;;;;;;;5044725;28;19951;-41
2023/09/15 17:59:40;;;;;;;;;;;;;;;;;;5045974;28;19965;-40
2023/09/15 18:02:05;;;;;;;;;;;;;;;;;;5056003;28;19909;-40
2023/09/15 18:04:32;;;;;;;;;;;;;;;;;;5056874;28;19909;-40
2023/09/15 18:06:58;;;;;;;;;;;;;;;;;;5061213;28;20004;-40
2023/09/15 18:09:23;;;;;;;;;;;;;;;;;;5045761;28;20361;-40
2023/09/15 18:11:50;;;;;;;;;;;;;;;;;;5057849;28;19909;-40
2023/09/15 18:14:15;;;;;;;;;;;;;;;;;;5067709;28;19955;-40
2023/09/15 18:16:41;;;;;;;;;;;;;;;;;;5049776;28;19963;-40
2023/09/15 18:19:07;;;;;;;;;;;;;;;;;;5048408;28;19919;-42
2023/09/15 18:21:33;;;;;;;;;;;;;;;;;;5045585;28;19948;-40
2023/09/15 18:23:59;;;;;;;;;;;;;;;;;;5045194;28;19916;-41
2023/09/15 18:26:25;;;;;;;;;;;;;;;;;;5050887;28;19909;-41
2023/09/15 18:28:51;;;;;;;;;;;;;;;;;;5041196;28;19923;-40
2023/09/15 18:31:17;;;;;;;;;;;;;;;;;;5047578;28;19916;-40
2023/09/15 18:33:43;;;;;;;;;;;;;;;;;;5027348;28;19916;-40
2023/09/15 18:36:09;;;;;;;;;;;;;;;;;;5045134;28;19920;-41
2023/09/15 18:38:35;;;;;;;;;;;;;;;;;;5020645;28;20030;-40
2023/09/15 18:41:01;;;;;;;;;;;;;;;;;;5029152;28;19913;-40
2023/09/15 18:43:27;;;;;;;;;;;;;;;;;;5048636;28;19913;-40
2023/09/15 18:45:54;;;;;;;;;;;;;;;;;;5047615;28;20575;-41
2023/09/15 18:48:20;;;;;;;;;;;;;;;;;;5045628;28;20015;-42
2023/09/15 18:50:46;;;;;;;;;;;;;;;;;;5049839;28;20020;-42
2023/09/15 18:53:15;;;;;;;;;;;;;;;;;;5051255;28;19971;-43
2023/09/15 18:55:41;;;;;;;;;;;;;;;;;;5050437;28;20003;-42
2023/09/15 18:58:07;;;;;;;;;;;;;;;;;;5048318;28;20008;-42
2023/09/15 19:00:34;;;;;;;;;;;;;;;;;;5050208;28;20299;-42
2023/09/15 19:03:02;;;;;;;;;;;;;;;;;;5050317;28;19917;-42
2023/09/15 19:05:30;;;;;;;;;;;;;;;;;;5052439;28;19909;-42
2023/09/15 19:07:56;;;;;;;;;;;;;;;;;;5048909;28;19912;-40
2023/09/15 19:10:23;;;;;;;;;;;;;;;;;;5049260;28;20387;-40
2023/09/15 19:12:49;;;;;;;;;;;;;;;;;;5045618;28;19917;-40
2023/09/15 19:15:15;;;;;;;;;;;;;;;;;;5030343;28;19935;-41
2023/09/15 19:17:41;;;;;;;;;;;;;;;;;;5032749;28;19917;-41
2023/09/15 19:20:07;;;;;;;;;;;;;;;;;;5049774;28;19917;-41
2023/09/15 19:22:33;;;;;;;;;;;;;;;;;;5047667;28;20355;-40
2023/09/15 19:24:59;;;;;;;;;;;;;;;;;;5050051;28;19913;-41
2023/09/15 19:27:24;;;;;;;;;;;;;;;;;;5050598;28;19913;-40
2023/09/15 19:29:50;;;;;;;;;;;;;;;;;;5048672;28;19921;-41
2023/09/15 19:32:16;;;;;;;;;;;;;;;;;;5032078;28;20008;-42
2023/09/15 19:34:43;;;;;;;;;;;;;;;;;;5048572;28;19913;-42
2023/09/15 19:37:09;;;;;;;;;;;;;;;;;;5049257;28;19919;-42
2023/09/15 19:39:35;;;;;;;;;;;;;;;;;;5044531;28;19912;-42
2023/09/15 19:42:01;;;;;;;;;;;;;;;;;;5029042;28;19921;-41
2023/09/15 19:44:26;;;;;;;;;;;;;;;;;;5046084;28;19913;-48
2023/09/15 19:46:53;;;;;;;;;;;;;;;;;;5044799;28;19990;-49
2023/09/15 19:49:18;;;;;;;;;;;;;;;;;;5047567;28;19952;-47
2023/09/15 19:51:45;;;;;;;;;;;;;;;;;;5045284;28;20410;-49
2023/09/15 19:54:11;;;;;;;;;;;;;;;;;;5046125;28;19917;-48
2023/09/15 19:56:37;;;;;;;;;;;;;;;;;;5047167;28;20213;-50
2023/09/15 19:59:03;;;;;;;;;;;;;;;;;;5048531;28;20421;-49
2023/09/15 20:01:29;;;;;;;;;;;;;;;;;;5047442;28;19913;-51
2023/09/15 20:03:55;;;;;;;;;;;;;;;;;;5047803;28;20414;-51
2023/09/15 20:06:21;;;;;;;;;;;;;;;;;;5028986;28;19913;-51
2023/09/15 20:08:47;;;;;;;;;;;;;;;;;;5026807;28;19913;-51
2023/09/15 20:11:13;;;;;;;;;;;;;;;;;;5045992;28;19913;-50
2023/09/15 20:13:38;;;;;;;;;;;;;;;;;;5046035;28;19917;-49
2023/09/15 20:16:05;;;;;;;;;;;;;;;;;;5026696;28;19913;-49
2023/09/15 20:18:32;;;;;;;;;;;;;;;;;;5045714;28;19912;-52
2023/09/15 20:20:58;;;;;;;;;;;;;;;;;;5046077;28;20415;-50
2023/09/15 20:23:24;;;;;;;;;;;;;;;;;;5045798;28;20020;-50
2023/09/15 20:25:50;;;;;;;;;;;;;;;;;;5043608;28;19947;-51
2023/09/15 20:28:17;;;;;;;;;;;;;;;;;;5046542;28;20315;-50
2023/09/15 20:30:43;;;;;;;;;;;;;;;;;;5044345;28;19935;-51
2023/09/15 20:33:09;;;;;;;;;;;;;;;;;;5042771;28;19917;-52
2023/09/15 20:35:37;;;;;;;;;;;;;;;;;;5046100;28;19917;-50
2023/09/15 20:38:03;;;;;;;;;;;;;;;;;;5042351;28;19948;-53
2023/09/15 20:40:29;;;;;;;;;;;;;;;;;;5045769;28;20009;-52
2023/09/15 20:42:55;;;;;;;;;;;;;;;;;;5045893;28;19919;-48
2023/09/15 20:45:22;;;;;;;;;;;;;;;;;;5046935;28;19935;-49
2023/09/15 20:47:49;;;;;;;;;;;;;;;;;;5045148;28;20004;-52
2023/09/15 20:50:15;;;;;;;;;;;;;;;;;;5043921;28;19917;-51
2023/09/15 20:52:41;;;;;;;;;;;;;;;;;;5047299;28;19924;-50
2023/09/15 20:55:06;;;;;;;;;;;;;;;;;;5044635;28;20006;-52
2023/09/15 20:57:32;;;;;;;;;;;;;;;;;;5020685;28;19913;-50
2023/09/15 20:59:58;;;;;;;;;;;;;;;;;;5036938;28;19913;-50
2023/09/15 21:02:24;;;;;;;;;;;;;;;;;;5045118;28;19913;-50
2023/09/15 21:04:50;;;;;;;;;;;;;;;;;;5045118;28;20022;-50
2023/09/15 21:07:16;;;;;;;;;;;;;;;;;;5047783;28;20209;-48
2023/09/15 21:09:42;;;;;;;;;;;;;;;;;;5045435;28;19912;-50
2023/09/15 21:12:08;;;;;;;;;;;;;;;;;;5044945;28;19948;-51
2023/09/15 21:14:35;;;;;;;;;;;;;;;;;;5046415;28;20367;-49
2023/09/15 21:17:01;;;;;;;;;;;;;;;;;;5027867;28;20295;-48
2023/09/15 21:19:26;;;;;;;;;;;;;;;;;;5044696;28;19916;-51
2023/09/15 21:21:53;;;;;;;;;;;;;;;;;;5044464;28;19920;-48
2023/09/15 21:24:19;;;;;;;;;;;;;;;;;;5026335;28;19920;-51
2023/09/15 21:26:45;;;;;;;;;;;;;;;;;;5045901;28;19931;-49
2023/09/15 21:29:12;;;;;;;;;;;;;;;;;;5041249;28;19967;-49
2023/09/15 21:31:38;;;;;;;;;;;;;;;;;;5043040;28;19920;-50
2023/09/15 21:34:04;;;;;;;;;;;;;;;;;;5027013;28;19917;-51
2023/09/15 21:36:30;;;;;;;;;;;;;;;;;;5027179;28;20442;-48
2023/09/15 21:38:55;;;;;;;;;;;;;;;;;;5044309;28;19913;-48
2023/09/15 21:41:23;;;;;;;;;;;;;;;;;;5023675;28;19909;-49
2023/09/15 21:43:48;;;;;;;;;;;;;;;;;;5025371;28;19913;-49
2023/09/15 21:46:14;;;;;;;;;;;;;;;;;;5027729;28;20043;-49
2023/09/15 21:48:40;;;;;;;;;;;;;;;;;;5025420;28;20398;-48
2023/09/15 21:51:07;;;;;;;;;;;;;;;;;;5027158;28;19909;-50
2023/09/15 21:53:33;;;;;;;;;;;;;;;;;;5026766;28;19920;-50